Terminal Aerodrome Forecast
Issued by NWS

Home | Current Version | Previous Version | Text Only | Print | Product List | Glossary On
Versions: 1 2 3 4 5 6 7 8 9 10 11 12 13 14 15 16 17 18 19 20 21 22 23 24 25 26 27 28
000
FTUS42 KRAH 152337
TAFRWI
TAF
KRWI 152337Z 1600/1624 20006KT P6SM SKC
     FM161200 24011G18KT P6SM FEW150 SCT250
     FM162100 22010KT P6SM SCT060 SCT150=

USA.gov is the U.S. government's official web portal to all federal, state and local government web resources and services.